createdAt,value
2022-12-27T00:01:12.727Z,331
2022-12-27T00:03:21.352Z,331
2022-12-27T00:05:26.732Z,331
2022-12-27T00:07:31.859Z,331
2022-12-27T00:09:38.113Z,331
2022-12-27T00:11:43.447Z,331
2022-12-27T00:13:48.691Z,331
2022-12-27T00:15:54.031Z,331
2022-12-27T00:18:00.516Z,331
2022-12-27T00:20:13.497Z,331
2022-12-27T00:22:18.869Z,331
2022-12-27T00:24:24.062Z,331
2022-12-27T00:26:29.355Z,331
2022-12-27T00:28:36.401Z,331
2022-12-27T00:30:41.641Z,331
2022-12-27T00:32:46.819Z,331
2022-12-27T00:34:52.004Z,331
2022-12-27T00:36:58.391Z,331
2022-12-27T00:39:04.306Z,331
2022-12-27T00:41:09.545Z,331
2022-12-27T00:43:15.937Z,331
2022-12-27T00:45:21.434Z,331
2022-12-27T00:47:27.048Z,331
2022-12-27T00:49:32.454Z,331
2022-12-27T00:51:39.601Z,331
2022-12-27T00:53:44.709Z,331
2022-12-27T00:55:49.643Z,331
2022-12-27T00:57:54.951Z,331
2022-12-27T01:00:10.008Z,331
2022-12-27T01:02:18.954Z,331
2022-12-27T01:04:24.546Z,331
2022-12-27T01:06:29.749Z,331
2022-12-27T01:08:35.963Z,331
2022-12-27T01:10:42.221Z,331
2022-12-27T01:12:47.430Z,332
2022-12-27T01:14:52.622Z,332
2022-12-27T01:16:57.877Z,332
2022-12-27T01:19:03.373Z,331
2022-12-27T01:21:08.525Z,333
2022-12-27T01:23:16.879Z,333
2022-12-27T01:25:21.985Z,332
2022-12-27T01:27:27.600Z,331
2022-12-27T01:29:35.541Z,332
2022-12-27T01:31:40.724Z,332
2022-12-27T01:33:46.056Z,333
2022-12-27T01:35:51.419Z,333
2022-12-27T01:37:56.646Z,332
2022-12-27T01:40:01.865Z,333
2022-12-27T01:42:06.946Z,333
2022-12-27T01:44:12.081Z,334
2022-12-27T01:46:17.207Z,333
2022-12-27T01:48:22.754Z,334
2022-12-27T01:50:28.207Z,333
2022-12-27T01:52:37.371Z,333
2022-12-27T01:54:42.788Z,334
2022-12-27T01:56:48.124Z,333
2022-12-27T01:58:53.282Z,334
2022-12-27T02:00:58.777Z,334
2022-12-27T02:03:04.367Z,333
2022-12-27T02:05:11.765Z,334
2022-12-27T02:07:16.877Z,334
2022-12-27T02:09:22.350Z,334
2022-12-27T02:11:28.927Z,334
2022-12-27T02:13:34.006Z,334
2022-12-27T02:15:39.383Z,334
2022-12-27T02:17:44.546Z,334
2022-12-27T02:19:49.794Z,334
2022-12-27T02:21:55.089Z,334
2022-12-27T02:24:00.602Z,334
2022-12-27T02:26:07.531Z,334
2022-12-27T02:28:12.827Z,334
2022-12-27T02:30:17.910Z,334
2022-12-27T02:32:23.331Z,334
2022-12-27T02:34:28.919Z,334
2022-12-27T02:36:34.088Z,334
2022-12-27T02:38:39.517Z,334
2022-12-27T02:40:44.939Z,334
2022-12-27T02:42:50.246Z,334
2022-12-27T02:44:55.860Z,334
2022-12-27T02:47:01.093Z,334
2022-12-27T02:49:06.325Z,334
2022-12-27T02:51:11.549Z,334
2022-12-27T02:53:18.989Z,334
2022-12-27T02:55:24.389Z,334
2022-12-27T02:57:29.422Z,334
2022-12-27T02:59:34.658Z,334
2022-12-27T03:01:40.042Z,334
2022-12-27T03:03:47.573Z,334
2022-12-27T03:05:52.653Z,334
2022-12-27T03:07:57.847Z,334
2022-12-27T03:10:03.063Z,334
2022-12-27T03:12:08.348Z,334
2022-12-27T03:14:13.548Z,334
2022-12-27T03:16:19.221Z,334
2022-12-27T03:18:24.787Z,334
2022-12-27T03:20:29.980Z,334
2022-12-27T03:22:35.110Z,334
2022-12-27T03:24:43.019Z,334
2022-12-27T03:26:48.303Z,334
2022-12-27T03:28:53.365Z,334
2022-12-27T03:30:58.621Z,334
2022-12-27T03:33:04.740Z,334
2022-12-27T03:35:09.935Z,334
2022-12-27T03:37:15.054Z,334
2022-12-27T03:39:21.485Z,334
2022-12-27T03:41:26.592Z,334
2022-12-27T03:43:32.827Z,334
2022-12-27T03:45:38.106Z,333
2022-12-27T03:47:43.208Z,334
2022-12-27T03:49:48.452Z,334
2022-12-27T03:51:53.847Z,334
2022-12-27T03:53:59.025Z,334
2022-12-27T03:56:07.122Z,333
2022-12-27T03:58:12.299Z,333
2022-12-27T04:00:17.429Z,333
2022-12-27T04:02:24.698Z,332
2022-12-27T04:04:30.405Z,333
2022-12-27T04:06:36.763Z,333
2022-12-27T04:08:42.305Z,331
2022-12-27T04:10:47.370Z,331
2022-12-27T04:12:52.703Z,331
2022-12-27T04:14:57.953Z,331
2022-12-27T04:17:03.238Z,331
2022-12-27T04:19:08.649Z,331
2022-12-27T04:21:13.829Z,331
2022-12-27T04:23:19.141Z,331
2022-12-27T04:25:24.695Z,331
2022-12-27T04:27:30.447Z,331
2022-12-27T04:29:35.631Z,331
2022-12-27T04:31:41.087Z,331
2022-12-27T04:33:46.294Z,331
2022-12-27T04:35:51.733Z,331
2022-12-27T04:37:57.023Z,331
2022-12-27T04:40:02.137Z,331
2022-12-27T04:42:07.570Z,331
2022-12-27T04:44:12.730Z,330
2022-12-27T04:46:32.700Z,330
2022-12-27T04:48:37.865Z,330
2022-12-27T04:50:43.632Z,330
2022-12-27T04:52:49.205Z,330
2022-12-27T04:54:54.415Z,330
2022-12-27T04:56:59.890Z,330
2022-12-27T04:59:05.716Z,330
2022-12-27T05:01:21.273Z,330
2022-12-27T05:03:27.341Z,330
2022-12-27T05:05:32.786Z,330
2022-12-27T05:07:38.455Z,330
2022-12-27T05:09:43.666Z,330
2022-12-27T05:11:48.998Z,330
2022-12-27T05:13:54.409Z,330
2022-12-27T05:15:59.754Z,330
2022-12-27T05:18:05.359Z,330
2022-12-27T05:20:10.655Z,330
2022-12-27T05:22:17.047Z,330
2022-12-27T05:24:22.391Z,330
2022-12-27T05:26:27.855Z,330
2022-12-27T05:28:33.096Z,330
2022-12-27T05:30:38.848Z,330
2022-12-27T05:32:44.245Z,330
2022-12-27T05:34:49.693Z,330
2022-12-27T05:36:54.985Z,330
2022-12-27T05:39:00.326Z,330
2022-12-27T05:41:05.737Z,330
2022-12-27T05:43:11.141Z,330
2022-12-27T05:45:16.579Z,330
2022-12-27T05:47:21.772Z,330
2022-12-27T05:49:27.153Z,330
2022-12-27T05:51:32.574Z,330
2022-12-27T05:53:37.608Z,330
2022-12-27T05:55:43.121Z,330
2022-12-27T05:57:48.499Z,330
2022-12-27T05:59:53.627Z,330
2022-12-27T06:01:59.531Z,330
2022-12-27T06:04:06.451Z,330
2022-12-27T06:06:11.419Z,330
2022-12-27T06:08:16.928Z,330
2022-12-27T06:10:22.194Z,330
2022-12-27T06:12:27.290Z,330
2022-12-27T06:14:32.626Z,330
2022-12-27T06:16:38.157Z,330
2022-12-27T06:18:43.965Z,330
2022-12-27T06:20:49.677Z,330
2022-12-27T06:22:55.730Z,330
2022-12-27T06:25:00.833Z,330
2022-12-27T06:27:06.223Z,330
2022-12-27T06:29:13.539Z,330
2022-12-27T06:31:18.996Z,330
2022-12-27T06:33:25.101Z,330
2022-12-27T06:35:30.316Z,330
2022-12-27T06:37:35.627Z,330
2022-12-27T06:39:40.872Z,330
2022-12-27T06:41:47.225Z,330
2022-12-27T06:43:52.929Z,330
2022-12-27T06:45:58.638Z,330
2022-12-27T06:48:04.789Z,330
2022-12-27T06:50:10.148Z,330
2022-12-27T06:52:15.154Z,330
2022-12-27T06:54:20.612Z,330
2022-12-27T06:56:25.765Z,330
2022-12-27T06:58:31.035Z,330
2022-12-27T07:00:36.596Z,330
2022-12-27T07:02:43.159Z,330
2022-12-27T07:04:48.740Z,330
2022-12-27T07:06:53.945Z,330
2022-12-27T07:08:59.447Z,330
2022-12-27T07:11:05.025Z,330
2022-12-27T07:16:40.286Z,330
2022-12-27T07:22:11.488Z,330
2022-12-27T07:24:37.994Z,330
2022-12-27T07:26:44.154Z,330
2022-12-27T07:28:59.055Z,330
2022-12-27T07:31:04.199Z,331
2022-12-27T07:33:30.858Z,330
2022-12-27T07:35:45.020Z,331
2022-12-27T07:37:50.888Z,330
2022-12-27T07:40:17.824Z,331
2022-12-27T07:42:23.451Z,331
2022-12-27T07:44:29.183Z,331
2022-12-27T07:46:35.015Z,331
2022-12-27T07:49:02.313Z,331
2022-12-27T07:51:09.416Z,331
2022-12-27T07:53:15.555Z,331
2022-12-27T07:55:21.683Z,331
2022-12-27T07:57:28.513Z,331
2022-12-27T07:59:34.703Z,331
2022-12-27T08:01:40.874Z,331
2022-12-27T08:03:48.801Z,331
2022-12-27T08:05:55.021Z,331
2022-12-27T08:08:00.952Z,331
2022-12-27T08:10:07.036Z,331
2022-12-27T08:12:14.481Z,331
2022-12-27T08:14:20.321Z,331
2022-12-27T08:16:28.612Z,331
2022-12-27T08:18:35.041Z,331
2022-12-27T08:20:41.014Z,331
2022-12-27T08:22:47.363Z,331
2022-12-27T08:24:53.430Z,331
2022-12-27T08:26:59.396Z,331
2022-12-27T08:29:05.373Z,331
2022-12-27T08:31:12.352Z,331
2022-12-27T08:33:19.285Z,331
2022-12-27T08:36:04.691Z,331
2022-12-27T08:38:49.943Z,331
2022-12-27T08:40:56.320Z,331
2022-12-27T08:43:02.179Z,331
2022-12-27T08:45:08.584Z,331
2022-12-27T08:47:15.596Z,331
2022-12-27T08:49:24.512Z,331
2022-12-27T08:51:42.997Z,331
2022-12-27T08:53:48.428Z,331
2022-12-27T08:56:08.339Z,331
2022-12-27T08:58:18.951Z,332
2022-12-27T09:00:25.280Z,332
2022-12-27T09:02:46.124Z,332
2022-12-27T09:04:52.112Z,332
2022-12-27T09:07:12.125Z,332
2022-12-27T09:09:18.239Z,332
2022-12-27T09:15:13.231Z,333
2022-12-27T09:18:02.020Z,333
2022-12-27T09:43:58.446Z,334
2022-12-27T09:46:04.871Z,334
2022-12-27T09:48:14.113Z,334
2022-12-27T09:50:21.670Z,334
2022-12-27T09:52:28.331Z,334
2022-12-27T09:54:35.578Z,334
2022-12-27T09:57:22.104Z,334
2022-12-27T09:59:29.085Z,334
2022-12-27T10:01:35.928Z,334
2022-12-27T10:03:42.197Z,334
2022-12-27T10:05:54.704Z,334
2022-12-27T10:08:03.178Z,334
2022-12-27T10:10:09.884Z,334
2022-12-27T10:12:17.596Z,334
2022-12-27T10:14:24.245Z,334
2022-12-27T10:16:30.851Z,334
2022-12-27T10:18:37.700Z,334
2022-12-27T10:20:44.116Z,334
2022-12-27T10:22:50.250Z,334
2022-12-27T10:25:01.210Z,334
2022-12-27T10:29:33.572Z,336
2022-12-27T10:31:40.202Z,336
2022-12-27T10:33:47.060Z,336
2022-12-27T10:35:53.533Z,336
2022-12-27T10:38:02.703Z,336
2022-12-27T10:40:09.091Z,336
2022-12-27T10:42:15.567Z,336
2022-12-27T10:44:21.772Z,336
2022-12-27T10:46:35.516Z,336
2022-12-27T10:49:23.675Z,336
2022-12-27T10:51:30.010Z,336
2022-12-27T10:53:36.419Z,336
2022-12-27T10:55:42.467Z,336
2022-12-27T10:57:50.684Z,336
2022-12-27T10:59:56.811Z,336
2022-12-27T11:02:05.734Z,336
2022-12-27T11:04:22.521Z,336
2022-12-27T11:06:28.978Z,336
2022-12-27T11:08:35.064Z,336
2022-12-27T11:10:41.441Z,336
2022-12-27T11:12:48.210Z,336
2022-12-27T11:14:57.007Z,336
2022-12-27T11:17:03.621Z,336
2022-12-27T11:19:12.074Z,336
2022-12-27T11:21:29.925Z,336
2022-12-27T11:23:35.980Z,336
2022-12-27T11:25:42.361Z,336
2022-12-27T11:27:47.738Z,336
2022-12-27T11:29:53.793Z,336
2022-12-27T11:31:59.626Z,336
2022-12-27T11:34:05.172Z,336
2022-12-27T11:36:11.071Z,337
2022-12-27T11:38:17.327Z,337
2022-12-27T11:40:23.199Z,336
2022-12-27T11:42:29.312Z,336
2022-12-27T11:44:35.376Z,336
2022-12-27T11:46:41.504Z,337
2022-12-27T11:48:48.361Z,336
2022-12-27T11:50:55.146Z,337
2022-12-27T11:53:01.345Z,337
2022-12-27T11:55:08.023Z,337
2022-12-27T11:57:14.075Z,337
2022-12-27T11:59:20.043Z,337
2022-12-27T12:01:27.927Z,337
2022-12-27T12:03:34.709Z,337
2022-12-27T12:05:40.623Z,337
2022-12-27T12:07:47.396Z,337
2022-12-27T12:09:53.683Z,337
2022-12-27T12:12:00.001Z,337
2022-12-27T12:14:06.975Z,337
2022-12-27T12:16:14.317Z,337
2022-12-27T12:18:20.703Z,337
2022-12-27T12:20:27.141Z,337
2022-12-27T12:22:34.387Z,337
2022-12-27T12:24:40.703Z,337
2022-12-27T12:26:50.488Z,337
2022-12-27T12:29:03.076Z,337
2022-12-27T12:31:09.673Z,337
2022-12-27T12:33:16.781Z,337
2022-12-27T12:35:24.131Z,337
2022-12-27T12:37:30.110Z,337
2022-12-27T12:39:36.859Z,337
2022-12-27T12:41:42.764Z,337
2022-12-27T12:43:48.954Z,338
2022-12-27T12:45:56.683Z,337
2022-12-27T12:48:03.557Z,337
2022-12-27T12:50:16.492Z,337
2022-12-27T12:52:22.880Z,337
2022-12-27T12:54:29.097Z,337
2022-12-27T12:56:35.599Z,337
2022-12-27T12:58:55.883Z,338
2022-12-27T13:01:02.896Z,337
2022-12-27T13:03:10.123Z,338
2022-12-27T13:05:19.100Z,337
2022-12-27T13:07:25.396Z,338
2022-12-27T13:09:32.299Z,338
2022-12-27T13:11:38.957Z,338
2022-12-27T13:13:45.489Z,338
2022-12-27T13:15:52.044Z,338
2022-12-27T13:17:59.351Z,338
2022-12-27T13:20:05.768Z,338
2022-12-27T13:22:19.229Z,338
2022-12-27T13:24:54.604Z,338
2022-12-27T13:27:13.917Z,338
2022-12-27T13:30:00.410Z,338
2022-12-27T13:32:20.742Z,338
2022-12-27T13:34:27.245Z,338
2022-12-27T13:36:35.903Z,338
2022-12-27T13:38:42.064Z,338
2022-12-27T13:40:47.716Z,338
2022-12-27T13:42:53.555Z,338
2022-12-27T13:44:59.670Z,338
2022-12-27T13:47:06.802Z,338
2022-12-27T13:49:12.901Z,338
2022-12-27T13:51:19.615Z,338
2022-12-27T13:53:26.340Z,338
2022-12-27T13:55:32.033Z,338
2022-12-27T13:57:38.531Z,339
2022-12-27T13:59:45.410Z,338
2022-12-27T14:01:52.209Z,339
2022-12-27T14:03:58.120Z,339
2022-12-27T14:06:03.744Z,339
2022-12-27T14:08:09.730Z,339
2022-12-27T14:10:15.089Z,339
2022-12-27T14:12:20.831Z,339
2022-12-27T14:14:26.530Z,339
2022-12-27T14:16:32.193Z,339
2022-12-27T14:18:40.761Z,339
2022-12-27T14:20:46.689Z,339
2022-12-27T14:22:57.296Z,339
2022-12-27T14:25:02.700Z,339
2022-12-27T14:27:08.802Z,339
2022-12-27T14:29:14.943Z,339
2022-12-27T14:31:23.962Z,339
2022-12-27T14:33:38.255Z,339
2022-12-27T14:35:45.286Z,339
2022-12-27T14:38:03.557Z,339
2022-12-27T14:40:36.127Z,339
2022-12-27T14:42:42.590Z,339
2022-12-27T14:44:49.392Z,339
2022-12-27T14:46:56.129Z,339
2022-12-27T14:49:02.609Z,339
2022-12-27T14:54:43.198Z,339
2022-12-27T14:56:49.167Z,339
2022-12-27T14:58:54.989Z,339
2022-12-27T15:01:03.441Z,339
2022-12-27T15:03:10.574Z,339
2022-12-27T15:05:16.694Z,339
2022-12-27T15:07:23.848Z,339
2022-12-27T15:09:30.526Z,339
2022-12-27T15:11:37.322Z,339
2022-12-27T15:13:44.001Z,339
2022-12-27T15:15:50.624Z,339
2022-12-27T15:17:57.620Z,339
2022-12-27T15:20:04.762Z,339
2022-12-27T15:22:12.294Z,339
2022-12-27T15:24:18.782Z,339
2022-12-27T15:26:25.035Z,339
2022-12-27T15:28:36.674Z,339
2022-12-27T15:30:51.075Z,339
2022-12-27T15:32:57.804Z,339
2022-12-27T15:35:07.023Z,340
2022-12-27T15:37:13.514Z,340
2022-12-27T15:39:20.112Z,340
2022-12-27T15:41:26.882Z,340
2022-12-27T15:43:33.421Z,340
2022-12-27T15:45:40.178Z,340
2022-12-27T15:47:47.248Z,340
2022-12-27T15:49:53.754Z,340
2022-12-27T15:52:00.552Z,340
2022-12-27T15:54:07.686Z,340
2022-12-27T15:56:15.870Z,340
2022-12-27T15:58:23.052Z,340
2022-12-27T16:00:36.397Z,340
2022-12-27T16:02:42.410Z,340
2022-12-27T16:04:51.421Z,340
2022-12-27T16:07:06.166Z,340
2022-12-27T16:09:16.222Z,340
2022-12-27T16:11:27.945Z,340
2022-12-27T16:13:44.475Z,340
2022-12-27T16:15:51.516Z,340
2022-12-27T16:17:58.757Z,340
2022-12-27T16:20:05.273Z,340
2022-12-27T16:22:13.442Z,340
2022-12-27T16:24:20.207Z,340
2022-12-27T16:26:27.787Z,340
2022-12-27T16:28:35.267Z,340
2022-12-27T16:30:41.349Z,340
2022-12-27T16:32:47.567Z,340
2022-12-27T16:34:53.613Z,340
2022-12-27T16:37:00.087Z,340
2022-12-27T16:39:06.804Z,340
2022-12-27T16:41:14.224Z,340
2022-12-27T16:43:22.103Z,340
2022-12-27T16:45:28.752Z,340
2022-12-27T16:47:36.301Z,340
2022-12-27T16:49:44.734Z,340
2022-12-27T16:51:52.055Z,340
2022-12-27T16:54:14.299Z,340
2022-12-27T16:56:21.947Z,340
2022-12-27T16:58:28.271Z,340
2022-12-27T17:00:36.895Z,340
2022-12-27T17:02:44.350Z,340
2022-12-27T17:04:52.770Z,340
2022-12-27T17:07:00.458Z,340
2022-12-27T17:09:08.515Z,340
2022-12-27T17:11:16.821Z,340
2022-12-27T17:13:23.795Z,340
2022-12-27T17:15:30.300Z,340
2022-12-27T17:17:37.536Z,341
2022-12-27T17:19:44.058Z,341
2022-12-27T17:21:51.271Z,340
2022-12-27T17:23:58.219Z,341
2022-12-27T17:26:06.767Z,340
2022-12-27T17:28:13.654Z,340
2022-12-27T17:30:20.897Z,341
2022-12-27T17:32:28.506Z,341
2022-12-27T17:34:36.283Z,341
2022-12-27T17:36:43.880Z,341
2022-12-27T17:38:52.034Z,341
2022-12-27T17:40:59.066Z,341
2022-12-27T17:43:08.780Z,341
2022-12-27T17:45:16.920Z,341
2022-12-27T17:47:24.835Z,341
2022-12-27T17:49:32.237Z,341
2022-12-27T17:51:41.917Z,341
2022-12-27T17:53:49.275Z,341
2022-12-27T17:55:56.183Z,341
2022-12-27T17:58:03.817Z,341
2022-12-27T18:00:11.893Z,341
2022-12-27T18:02:19.987Z,341
2022-12-27T18:04:28.116Z,341
2022-12-27T18:06:37.402Z,341
2022-12-27T18:08:46.515Z,341
2022-12-27T18:10:54.846Z,341
2022-12-27T18:13:04.963Z,341
2022-12-27T18:15:14.441Z,341
2022-12-27T18:17:31.620Z,341
2022-12-27T18:19:38.789Z,341
2022-12-27T18:21:48.213Z,341
2022-12-27T18:23:57.425Z,341
2022-12-27T18:26:13.590Z,341
2022-12-27T18:28:25.961Z,341
2022-12-27T18:30:38.889Z,341
2022-12-27T18:32:47.859Z,341
2022-12-27T18:34:55.430Z,341
2022-12-27T18:37:04.777Z,341
2022-12-27T18:39:13.433Z,341
2022-12-27T18:41:21.905Z,341
2022-12-27T18:43:31.659Z,341
2022-12-27T18:45:39.482Z,341
2022-12-27T18:47:47.449Z,341
2022-12-27T18:49:54.289Z,341
2022-12-27T18:52:01.544Z,341
2022-12-27T18:54:07.687Z,342
2022-12-27T18:56:14.893Z,342
2022-12-27T18:58:24.071Z,341
2022-12-27T19:00:33.940Z,341
2022-12-27T19:02:44.212Z,342
2022-12-27T19:04:54.055Z,342
2022-12-27T19:07:03.190Z,342
2022-12-27T19:09:10.264Z,342
2022-12-27T19:11:17.979Z,342
2022-12-27T19:13:25.621Z,343
2022-12-27T19:15:33.354Z,342
2022-12-27T19:17:41.879Z,341
2022-12-27T19:19:48.367Z,343
2022-12-27T19:21:57.528Z,343
2022-12-27T19:24:08.544Z,343
2022-12-27T19:26:18.807Z,343
2022-12-27T19:28:29.723Z,343
2022-12-27T19:30:37.256Z,343
2022-12-27T19:32:49.513Z,343
2022-12-27T19:34:57.516Z,343
2022-12-27T19:37:04.545Z,343
2022-12-27T19:39:12.681Z,343
2022-12-27T19:41:24.038Z,343
2022-12-27T19:43:32.264Z,343
2022-12-27T19:45:41.516Z,343
2022-12-27T19:47:48.820Z,343
2022-12-27T19:49:58.185Z,343
2022-12-27T19:52:07.787Z,343
2022-12-27T19:54:19.143Z,343
2022-12-27T19:56:26.841Z,343
2022-12-27T19:58:36.203Z,343
2022-12-27T20:00:43.254Z,343
2022-12-27T20:02:51.696Z,343
2022-12-27T20:05:02.696Z,343
2022-12-27T20:07:16.268Z,343
2022-12-27T20:09:24.887Z,343
2022-12-27T20:11:35.197Z,343
2022-12-27T20:13:45.280Z,343
2022-12-27T20:15:54.759Z,343
2022-12-27T20:18:04.881Z,343
2022-12-27T20:20:13.268Z,343
2022-12-27T20:22:29.002Z,343
2022-12-27T20:24:40.016Z,343
2022-12-27T20:26:51.823Z,343
2022-12-27T20:29:03.861Z,343
2022-12-27T20:31:11.981Z,343
2022-12-27T20:33:19.643Z,343
2022-12-27T20:35:26.710Z,343
2022-12-27T20:37:39.528Z,343
2022-12-27T20:39:48.135Z,343
2022-12-27T20:41:56.369Z,343
2022-12-27T20:44:04.257Z,343
2022-12-27T20:46:11.436Z,343
2022-12-27T20:48:19.202Z,343
2022-12-27T20:50:28.061Z,343
2022-12-27T20:52:36.275Z,343
2022-12-27T20:54:44.072Z,343
2022-12-27T20:56:51.536Z,343
2022-12-27T20:58:59.170Z,343
2022-12-27T21:01:06.044Z,343
2022-12-27T21:03:13.737Z,343
2022-12-27T21:05:22.849Z,344
2022-12-27T21:07:31.363Z,343
2022-12-27T21:09:37.957Z,343
2022-12-27T21:11:45.718Z,343
2022-12-27T21:13:53.856Z,343
2022-12-27T21:16:01.058Z,344
2022-12-27T21:18:09.156Z,343
2022-12-27T21:20:17.581Z,343
2022-12-27T21:22:26.332Z,344
2022-12-27T21:24:35.060Z,344
2022-12-27T21:26:42.697Z,344
2022-12-27T21:28:49.437Z,344
2022-12-27T21:30:56.789Z,344
2022-12-27T21:33:04.289Z,344
2022-12-27T21:35:12.365Z,344
2022-12-27T21:37:18.137Z,344
2022-12-27T21:39:25.558Z,344
2022-12-27T21:41:32.921Z,344
2022-12-27T21:43:38.862Z,344
2022-12-27T21:45:45.221Z,344
2022-12-27T21:47:53.154Z,344
2022-12-27T21:49:59.494Z,344
2022-12-27T21:52:06.986Z,344
2022-12-27T21:54:14.572Z,344
2022-12-27T21:56:22.279Z,344
2022-12-27T21:58:29.682Z,344
2022-12-27T22:00:36.161Z,344
2022-12-27T22:02:43.305Z,344
2022-12-27T22:04:51.507Z,344
2022-12-27T22:06:58.108Z,344
2022-12-27T22:09:05.374Z,344
2022-12-27T22:11:11.977Z,344
2022-12-27T22:13:18.187Z,344
2022-12-27T22:15:27.438Z,344
2022-12-27T22:17:33.945Z,344
2022-12-27T22:19:40.200Z,344
2022-12-27T22:21:46.465Z,344
2022-12-27T22:23:54.324Z,344
2022-12-27T22:26:00.749Z,344
2022-12-27T22:28:06.729Z,344
2022-12-27T22:30:12.404Z,344
2022-12-27T22:32:18.385Z,344
2022-12-27T22:34:24.967Z,344
2022-12-27T22:36:31.695Z,344
2022-12-27T22:38:40.679Z,344
2022-12-27T22:40:49.871Z,344
2022-12-27T22:42:55.950Z,344
2022-12-27T22:45:01.516Z,344
2022-12-27T22:47:38.426Z,344
2022-12-27T22:49:44.628Z,344
2022-12-27T22:51:50.264Z,344
2022-12-27T22:53:56.161Z,344
2022-12-27T22:56:01.921Z,344
2022-12-27T22:58:08.165Z,344
2022-12-27T23:00:14.096Z,344
2022-12-27T23:02:20.610Z,344
2022-12-27T23:04:26.905Z,344
2022-12-27T23:06:32.471Z,344
2022-12-27T23:08:38.084Z,344
2022-12-27T23:10:43.952Z,344
2022-12-27T23:12:50.178Z,344
2022-12-27T23:14:56.113Z,344
2022-12-27T23:17:02.124Z,344
2022-12-27T23:19:11.146Z,344
2022-12-27T23:21:26.472Z,344
2022-12-27T23:23:31.723Z,344
2022-12-27T23:25:37.402Z,344
2022-12-27T23:27:42.852Z,344
2022-12-27T23:29:48.704Z,344
2022-12-27T23:31:58.262Z,344
2022-12-27T23:34:03.754Z,345
2022-12-27T23:36:10.411Z,344
2022-12-27T23:38:16.342Z,344
2022-12-27T23:40:22.014Z,344
2022-12-27T23:42:27.276Z,345
2022-12-27T23:44:36.805Z,344
2022-12-27T23:46:42.117Z,345
2022-12-27T23:48:48.008Z,345
2022-12-27T23:50:53.273Z,344
2022-12-27T23:52:58.620Z,344
2022-12-27T23:55:04.052Z,345
2022-12-27T23:57:24.309Z,344
2022-12-27T23:59:29.948Z,344
